Time;durP1;ratioP1;P1;durP2;ratioP2;P2;SDS_P1;SDS_P2;PMS_P1;PMS_P2;Temp;Humidity;BMP_temperature;BMP_pressure;BME280_temperature;BME280_humidity;BME280_pressure;Samples;Min_cycle;Max_cycle;Signal;HPM_P1;HPM_P2
2021/11/15 00:00:25;;;;;;;22.20;15.27;;;;;;;5.33;100.00;93267.41;2090067;28;20067;-87
2021/11/15 00:01:26;;;;;;;19.48;14.23;;;;;;;5.22;100.00;93270.81;2087566;28;20056;-86
2021/11/15 00:02:28;;;;;;;24.00;15.93;;;;;;;5.25;100.00;93278.00;2095139;28;20024;-88
2021/11/15 00:03:29;;;;;;;20.45;14.15;;;;;;;5.28;100.00;93263.25;2098555;28;20507;-87
2021/11/15 00:04:30;;;;;;;22.70;14.68;;;;;;;5.43;100.00;93261.34;2095221;28;20024;-85
2021/11/15 00:05:31;;;;;;;22.33;14.55;;;;;;;5.28;100.00;93271.94;2101483;28;20099;-87
2021/11/15 00:06:32;;;;;;;25.75;15.43;;;;;;;5.25;100.00;93261.34;2099264;28;20021;-89
2021/11/15 00:07:33;;;;;;;20.48;14.48;;;;;;;5.22;100.00;93267.38;2080929;28;20198;-87
2021/11/15 00:08:33;;;;;;;22.20;15.50;;;;;;;5.32;100.00;93264.00;2095405;28;20041;-87
2021/11/15 00:09:35;;;;;;;22.23;14.88;;;;;;;5.32;100.00;93261.34;2106177;28;20046;-88
2021/11/15 00:10:36;;;;;;;21.48;14.95;;;;;;;5.39;100.00;93266.63;2111394;27;20024;-86
2021/11/15 00:11:38;;;;;;;23.20;14.55;;;;;;;5.35;100.00;93260.56;2115020;28;20443;-88
2021/11/15 00:12:39;;;;;;;23.02;15.27;;;;;;;5.37;100.00;93263.63;2102612;28;20034;-88
2021/11/15 00:13:40;;;;;;;22.73;14.80;;;;;;;5.29;100.00;93267.41;2099439;28;20028;-87
2021/11/15 00:14:41;;;;;;;22.05;15.05;;;;;;;5.33;100.00;93257.56;2093568;28;20104;-85
2021/11/15 00:15:42;;;;;;;22.52;15.63;;;;;;;5.26;100.00;93263.59;2103182;28;20016;-88
2021/11/15 00:16:43;;;;;;;23.50;14.60;;;;;;;5.25;100.00;93263.97;2101469;28;20028;-88
2021/11/15 00:17:44;;;;;;;22.15;14.68;;;;;;;5.10;100.00;93257.94;2103394;28;20138;-87
2021/11/15 00:18:45;;;;;;;21.63;14.68;;;;;;;5.18;100.00;93256.81;2102339;28;20100;-87
2021/11/15 00:19:46;;;;;;;22.45;14.63;;;;;;;5.17;100.00;93268.50;2092870;28;20560;-86
2021/11/15 00:20:47;;;;;;;24.45;14.48;;;;;;;5.27;100.00;93257.19;2095306;28;20024;-87
2021/11/15 00:21:48;;;;;;;21.90;14.13;;;;;;;5.19;100.00;93260.97;2098228;28;20035;-87
2021/11/15 00:22:49;;;;;;;23.80;14.48;;;;;;;5.29;100.00;93268.16;2098041;28;20052;-87
2021/11/15 00:23:51;;;;;;;20.17;13.88;;;;;;;5.10;100.00;93265.13;2107494;28;20023;-87
2021/11/15 00:24:52;;;;;;;21.23;14.80;;;;;;;5.22;100.00;93267.38;2102108;28;20457;-88
2021/11/15 00:25:53;;;;;;;26.48;16.17;;;;;;;5.26;100.00;93260.19;2094866;28;20032;-85
2021/11/15 00:26:54;;;;;;;21.80;14.65;;;;;;;5.12;100.00;93268.13;2103103;28;20139;-88
2021/11/15 00:27:55;;;;;;;22.70;15.48;;;;;;;5.11;100.00;93264.72;2106616;28;20540;-88
2021/11/15 00:28:56;;;;;;;25.70;14.75;;;;;;;5.07;100.00;93263.22;2097053;28;20107;-86
2021/11/15 00:30:00;;;;;;;23.40;15.02;;;;;;;5.05;100.00;93269.66;2096639;28;20035;-87
2021/11/15 00:31:01;;;;;;;23.10;15.27;;;;;;;5.03;100.00;93269.25;2091517;28;20033;-87
2021/11/15 00:32:02;;;;;;;24.70;14.95;;;;;;;5.00;100.00;93271.91;2097402;28;20035;-86
2021/11/15 00:33:03;;;;;;;23.77;14.75;;;;;;;5.12;100.00;93262.84;2106581;28;20020;-87
2021/11/15 00:34:04;;;;;;;23.42;14.50;;;;;;;5.11;100.00;93267.38;2098611;28;20036;-86
2021/11/15 00:35:06;;;;;;;24.33;14.98;;;;;;;4.99;100.00;93268.50;2098048;28;20028;-86
2021/11/15 00:36:07;;;;;;;19.58;13.70;;;;;;;5.16;100.00;93263.59;2106591;28;20036;-87
2021/11/15 00:37:08;;;;;;;24.80;14.38;;;;;;;5.12;100.00;93266.25;2097990;28;20465;-86
2021/11/15 00:38:09;;;;;;;24.27;15.80;;;;;;;5.10;100.00;93262.47;2097944;28;20063;-85
2021/11/15 00:39:10;;;;;;;22.50;15.40;;;;;;;5.01;100.00;93266.25;2090090;28;20477;-86
2021/11/15 00:40:14;;;;;;;27.77;15.50;;;;;;;5.11;100.00;93266.63;2114842;27;20020;-87
2021/11/15 00:41:15;;;;;;;24.30;15.32;;;;;;;4.97;100.00;93268.13;2106997;28;20457;-87
2021/11/15 00:42:17;;;;;;;21.70;14.73;;;;;;;4.94;100.00;93268.09;2097210;28;20104;-87
2021/11/15 00:43:18;;;;;;;22.88;14.82;;;;;;;5.12;100.00;93276.09;2096260;28;20037;-85
2021/11/15 00:44:19;;;;;;;27.50;14.68;;;;;;;5.12;100.00;93276.84;2091157;28;20020;-87
2021/11/15 00:45:20;;;;;;;24.92;14.35;;;;;;;5.10;100.00;93271.19;2104482;28;20496;-86
2021/11/15 00:46:21;;;;;;;23.10;14.02;;;;;;;5.11;100.00;93275.34;2111615;27;20032;-87
2021/11/15 00:47:22;;;;;;;23.10;15.00;;;;;;;5.16;100.00;93271.56;2114875;27;20425;-87
2021/11/15 00:48:24;;;;;;;20.08;13.40;;;;;;;5.12;100.00;93273.44;2111896;28;20472;-86
2021/11/15 00:49:24;;;;;;;20.90;14.27;;;;;;;5.11;100.00;93275.34;2108354;28;20024;-88
2021/11/15 00:50:26;;;;;;;22.80;14.68;;;;;;;5.03;100.00;93282.50;2114587;28;20051;-88
2021/11/15 00:51:29;;;;;;;23.02;14.75;;;;;;;4.96;100.00;93273.78;2093931;28;20060;-86
2021/11/15 00:52:30;;;;;;;20.60;13.73;;;;;;;4.94;100.00;93282.09;2098417;28;20035;-87
2021/11/15 00:53:31;;;;;;;22.50;14.68;;;;;;;5.00;100.00;93277.19;2114718;28;20034;-86
2021/11/15 00:54:34;;;;;;;21.70;14.02;;;;;;;4.96;100.00;93269.25;2103370;28;20025;-87
2021/11/15 00:55:35;;;;;;;25.50;15.60;;;;;;;4.92;100.00;93281.75;2093880;28;20757;-88
2021/11/15 00:56:36;;;;;;;24.02;14.80;;;;;;;5.00;100.00;93280.63;2097854;28;20024;-86
2021/11/15 00:57:37;;;;;;;21.40;14.88;;;;;;;4.92;100.00;93276.44;2093950;28;20048;-86
2021/11/15 00:58:38;;;;;;;23.50;14.75;;;;;;;4.90;100.00;93275.28;2087275;28;20024;-86
2021/11/15 00:59:39;;;;;;;18.73;14.20;;;;;;;4.98;100.00;93280.22;2092343;28;20103;-86
2021/11/15 01:00:41;;;;;;;22.73;15.35;;;;;;;4.96;100.00;93282.50;2094309;28;20091;-86
2021/11/15 01:01:42;;;;;;;21.67;13.45;;;;;;;5.01;100.00;93278.72;2106174;28;20031;-89
2021/11/15 01:02:43;;;;;;;22.85;14.77;;;;;;;5.04;100.00;93273.41;2097487;28;20069;-86
2021/11/15 01:03:45;;;;;;;23.92;15.13;;;;;;;5.06;100.00;93278.34;2089742;28;20025;-86
2021/11/15 01:04:45;;;;;;;19.30;13.90;;;;;;;5.00;100.00;93288.56;2089570;28;20031;-86
2021/11/15 01:05:49;;;;;;;24.42;15.13;;;;;;;4.93;100.00;93282.50;2089546;28;20024;-88
2021/11/15 01:06:50;;;;;;;19.33;13.45;;;;;;;5.04;100.00;93281.38;2109446;27;20071;-87
2021/11/15 01:07:52;;;;;;;25.25;14.77;;;;;;;4.97;100.00;93280.63;2114606;28;20023;-85
2021/11/15 01:08:53;;;;;;;22.05;13.90;;;;;;;4.94;100.00;93286.66;2106986;28;20051;-88
2021/11/15 01:09:54;;;;;;;24.27;14.73;;;;;;;4.85;100.00;93281.72;2112158;28;20028;-87
2021/11/15 01:10:56;;;;;;;22.02;13.90;;;;;;;4.86;100.00;93272.63;2099592;28;20115;-89
2021/11/15 01:11:57;;;;;;;18.75;13.32;;;;;;;4.89;100.00;93277.19;2101080;28;20516;-86
2021/11/15 01:13:00;;;;;;;21.27;14.20;;;;;;;5.08;100.00;93272.66;2090718;28;20112;-87
2021/11/15 01:14:01;;;;;;;19.15;12.48;;;;;;;5.06;100.00;93286.31;2096256;28;20028;-87
2021/11/15 01:15:04;;;;;;;20.75;14.05;;;;;;;4.88;100.00;93280.97;2097356;28;20119;-87
2021/11/15 01:16:07;;;;;;;23.65;14.57;;;;;;;4.93;100.00;93282.50;2097715;28;20576;-86
2021/11/15 01:17:09;;;;;;;20.92;14.00;;;;;;;4.94;100.00;93279.47;2098085;28;20024;-87
2021/11/15 01:18:10;;;;;;;22.02;13.90;;;;;;;5.00;100.00;93283.28;2105938;28;20028;-87
2021/11/15 01:19:14;;;;;;;21.10;13.40;;;;;;;4.92;100.00;93276.44;2090073;28;20028;-87
2021/11/15 01:20:17;;;;;;;19.75;13.68;;;;;;;5.00;100.00;93282.50;2106465;28;20059;-84
2021/11/15 01:21:24;;;;;;;22.67;14.73;;;;;;;5.01;100.00;93284.03;2098291;28;20020;-86
2021/11/15 01:22:25;;;;;;;20.95;14.23;;;;;;;5.04;100.00;93285.91;2106818;28;20031;-89
2021/11/15 01:23:26;;;;;;;22.08;13.85;;;;;;;4.93;100.00;93283.25;2106194;28;20365;-87
2021/11/15 01:24:27;;;;;;;20.67;13.27;;;;;;;4.86;100.00;93285.88;2106238;28;20051;-88
2021/11/15 01:25:28;;;;;;;21.95;15.05;;;;;;;4.84;100.00;93287.41;2097741;28;20424;-87
2021/11/15 01:26:29;;;;;;;22.38;12.95;;;;;;;4.86;100.00;93280.56;2105955;28;20020;-86
2021/11/15 01:27:30;;;;;;;19.63;13.85;;;;;;;4.86;100.00;93290.41;2098820;28;20024;-86
2021/11/15 01:28:31;;;;;;;21.15;14.05;;;;;;;4.85;100.00;93286.25;2095165;28;20031;-88
2021/11/15 01:29:32;;;;;;;20.42;13.75;;;;;;;4.89;100.00;93285.13;2097688;28;20358;-87
2021/11/15 01:30:34;;;;;;;19.10;14.07;;;;;;;4.88;100.00;93291.56;2099435;28;20109;-86
2021/11/15 01:31:35;;;;;;;21.63;13.63;;;;;;;4.80;100.00;93288.13;2097893;28;20034;-88
2021/11/15 01:32:38;;;;;;;21.40;14.63;;;;;;;4.83;100.00;93285.84;2097731;28;20024;-86
2021/11/15 01:33:38;;;;;;;21.65;14.18;;;;;;;4.80;100.00;93288.13;2104331;28;20028;-87
2021/11/15 01:34:39;;;;;;;19.05;13.55;;;;;;;4.81;100.00;93291.53;2105205;28;20035;-88
2021/11/15 01:35:40;;;;;;;21.35;14.38;;;;;;;5.10;100.00;93291.63;2098372;28;20096;-87
2021/11/15 01:36:41;;;;;;;19.85;14.10;;;;;;;5.02;100.00;93293.47;2097482;28;20028;-86
2021/11/15 01:37:43;;;;;;;24.42;14.13;;;;;;;4.95;100.00;93293.47;2093177;28;20021;-87
2021/11/15 01:38:44;;;;;;;24.05;14.70;;;;;;;4.89;100.00;93284.38;2096647;28;20052;-90
2021/11/15 01:39:45;;;;;;;23.40;14.40;;;;;;;4.78;100.00;93290.41;2096517;28;20077;-88
2021/11/15 01:40:47;;;;;;;20.88;14.65;;;;;;;4.76;100.00;93290.00;2088835;28;20110;-86
2021/11/15 01:41:48;;;;;;;21.52;14.25;;;;;;;4.75;100.00;93285.84;2081393;28;20033;-85
2021/11/15 01:42:50;;;;;;;21.25;13.35;;;;;;;4.75;100.00;93283.19;2096463;28;20056;-88
2021/11/15 01:43:51;;;;;;;22.85;14.30;;;;;;;4.75;100.00;93287.75;2097053;28;20025;-89
2021/11/15 01:44:52;;;;;;;22.02;13.93;;;;;;;4.74;100.00;93281.69;2089978;28;20033;-86
2021/11/15 01:45:53;;;;;;;23.13;13.77;;;;;;;4.82;100.00;93282.44;2106127;28;20032;-88
2021/11/15 01:46:56;;;;;;;22.27;14.65;;;;;;;4.85;100.00;93286.25;2114407;28;20077;-86
2021/11/15 01:48:00;;;;;;;21.83;13.77;;;;;;;4.77;100.00;93282.81;2114583;28;20507;-86
2021/11/15 01:49:02;;;;;;;20.48;14.30;;;;;;;4.91;100.00;93280.19;2114807;28;20524;-88
2021/11/15 01:50:06;;;;;;;21.25;14.32;;;;;;;4.83;100.00;93280.56;2122839;27;20383;-88
2021/11/15 01:51:06;;;;;;;21.20;14.18;;;;;;;4.86;100.00;93282.47;2119682;27;20035;-88
2021/11/15 01:52:09;;;;;;;21.95;13.80;;;;;;;4.77;100.00;93280.94;2100453;28;20491;-88
2021/11/15 01:53:11;;;;;;;22.05;13.73;;;;;;;4.84;100.00;93287.41;2111230;28;20369;-88
2021/11/15 01:54:12;;;;;;;21.00;14.52;;;;;;;5.01;100.00;93274.19;2109369;28;20542;-86
2021/11/15 01:55:15;;;;;;;23.15;14.13;;;;;;;5.08;100.00;93280.63;2102032;28;20032;-87
2021/11/15 01:56:16;;;;;;;20.52;13.82;;;;;;;5.03;100.00;93279.09;2101887;28;20106;-86
2021/11/15 01:57:18;;;;;;;22.30;14.05;;;;;;;4.93;100.00;93272.66;2101361;28;20175;-87
2021/11/15 01:58:19;;;;;;;18.15;12.85;;;;;;;4.86;100.00;93275.28;2098845;28;20519;-87
2021/11/15 01:59:21;;;;;;;20.08;14.23;;;;;;;4.93;100.00;93267.34;2109360;28;20138;-86
2021/11/15 02:00:29;;;;;;;20.08;13.25;;;;;;;4.94;100.00;93265.47;2110805;28;20389;-88
2021/11/15 02:01:30;;;;;;;19.05;13.02;;;;;;;4.87;100.00;93273.38;2108813;28;20484;-85
2021/11/15 02:02:31;;;;;;;22.75;14.13;;;;;;;5.01;100.00;93262.84;2101523;28;20495;-87
2021/11/15 02:03:32;;;;;;;22.20;14.18;;;;;;;4.88;100.00;93270.38;2102050;28;20031;-87
2021/11/15 02:04:33;;;;;;;21.35;13.27;;;;;;;4.87;100.00;93268.09;2101784;28;20401;-88
2021/11/15 02:05:36;;;;;;;19.67;13.55;;;;;;;4.83;100.00;93262.03;2098817;28;20043;-87
2021/11/15 02:08:39;;;;;;;;;;;;;;;4.71;100.00;93268.44;2131720;27;20178;-88
2021/11/15 02:09:40;;;;;;;22.83;12.93;;;;;;;4.71;100.00;93268.44;2113891;28;20469;-88
2021/11/15 02:10:41;;;;;;;20.70;13.07;;;;;;;4.74;100.00;93268.47;2112463;28;20019;-87
2021/11/15 02:11:42;;;;;;;18.90;12.57;;;;;;;4.74;100.00;93276.41;2096906;28;20024;-87
2021/11/15 02:12:43;;;;;;;20.15;13.10;;;;;;;4.72;100.00;93269.94;2111764;28;20102;-87
2021/11/15 02:13:45;;;;;;;21.15;13.95;;;;;;;4.81;100.00;93275.66;2112657;27;20734;-87
2021/11/15 02:14:46;;;;;;;19.52;13.18;;;;;;;4.82;100.00;93268.47;2113332;28;20106;-88
2021/11/15 02:15:48;;;;;;;21.15;13.45;;;;;;;4.78;100.00;93271.88;2108656;27;20024;-87
2021/11/15 02:16:49;;;;;;;26.33;14.55;;;;;;;4.83;100.00;93270.75;2107929;28;20035;-88
2021/11/15 02:17:51;;;;;;;22.38;13.98;;;;;;;4.86;100.00;93271.88;2094252;28;20508;-87
2021/11/15 02:18:53;;;;;;;21.15;13.35;;;;;;;4.73;100.00;93266.16;2112605;27;20082;-86
2021/11/15 02:19:57;;;;;;;22.55;13.98;;;;;;;4.71;100.00;93261.25;2116608;28;20034;-85
2021/11/15 02:21:03;;;;;;;19.35;13.38;;;;;;;4.75;100.00;93264.66;2098754;28;20123;-87
2021/11/15 02:22:04;;;;;;;21.83;13.25;;;;;;;4.85;100.00;93265.06;2101804;28;20016;-87
2021/11/15 02:23:05;;;;;;;20.45;12.82;;;;;;;4.94;100.00;93271.50;2093602;28;20024;-87
2021/11/15 02:24:06;;;;;;;18.98;12.95;;;;;;;4.86;100.00;93272.63;2110312;28;20062;-87
2021/11/15 02:25:08;;;;;;;19.42;13.52;;;;;;;4.84;100.00;93266.97;2099276;28;20027;-87
2021/11/15 02:26:11;;;;;;;24.27;14.73;;;;;;;4.89;100.00;93271.88;2104179;28;20484;-88
2021/11/15 02:27:12;;;;;;;21.45;12.95;;;;;;;4.90;100.00;93267.34;2100007;28;20024;-89
2021/11/15 02:28:13;;;;;;;21.55;13.68;;;;;;;4.84;100.00;93263.56;2100790;28;20512;-89
2021/11/15 02:29:14;;;;;;;23.52;13.65;;;;;;;4.68;100.00;93261.25;2100334;28;20111;-87
2021/11/15 02:30:19;;;;;;;22.73;13.25;;;;;;;4.84;100.00;93264.31;2091851;28;20032;-89
2021/11/15 02:31:27;;;;;;;20.63;12.82;;;;;;;4.77;100.00;93270.34;2098423;28;20028;-87
2021/11/15 02:32:28;;;;;;;23.80;13.27;;;;;;;4.82;100.00;93260.50;2108082;28;20028;-86
2021/11/15 02:33:31;;;;;;;19.35;13.43;;;;;;;4.77;100.00;93256.34;2108528;28;20098;-86
2021/11/15 02:34:32;;;;;;;22.38;13.70;;;;;;;4.78;100.00;93253.34;2093325;28;20017;-87
2021/11/15 02:35:33;;;;;;;20.00;12.90;;;;;;;4.66;100.00;93260.88;2102317;28;20055;-86
2021/11/15 02:36:35;;;;;;;19.45;13.18;;;;;;;4.68;100.00;93254.06;2103070;28;20488;-87
2021/11/15 02:37:38;;;;;;;18.27;12.35;;;;;;;4.60;100.00;93254.41;2091265;28;20036;-87
2021/11/15 02:38:39;;;;;;;19.10;13.00;;;;;;;4.53;100.00;93260.44;2104181;28;20476;-88
2021/11/15 02:39:40;;;;;;;21.48;14.02;;;;;;;4.52;100.00;93254.41;2105310;28;20024;-87
2021/11/15 02:40:41;;;;;;;18.85;12.77;;;;;;;4.64;100.00;93263.13;2103044;28;20167;-88
2021/11/15 02:41:42;;;;;;;24.05;14.10;;;;;;;4.68;100.00;93264.63;2088169;28;20029;-87
2021/11/15 02:42:43;;;;;;;21.20;13.88;;;;;;;4.61;100.00;93263.84;2094781;28;20032;-86
2021/11/15 02:43:45;;;;;;;20.50;13.30;;;;;;;4.70;100.00;93259.75;2096366;28;20448;-86
2021/11/15 02:44:46;;;;;;;19.50;13.00;;;;;;;4.71;100.00;93255.19;2108793;28;20027;-88
2021/11/15 02:45:47;;;;;;;20.15;13.23;;;;;;;4.65;100.00;93262.72;2096289;28;20420;-86
2021/11/15 02:46:50;;;;;;;20.73;13.68;;;;;;;4.82;100.00;93263.91;2104338;28;20028;-89
2021/11/15 02:47:52;;;;;;;20.85;14.18;;;;;;;4.71;100.00;93263.16;2104924;28;20028;-85
2021/11/15 02:48:55;;;;;;;21.95;14.00;;;;;;;4.66;100.00;93266.16;2103357;28;20028;-85
2021/11/15 02:49:57;;;;;;;21.75;13.18;;;;;;;4.73;100.00;93258.22;2100417;28;20520;-85
2021/11/15 02:50:58;;;;;;;19.85;13.25;;;;;;;4.60;100.00;93257.06;2087898;28;20045;-87
2021/11/15 02:51:59;;;;;;;21.55;12.82;;;;;;;4.55;100.00;93264.22;2087025;28;20047;-85
2021/11/15 02:53:06;;;;;;;19.05;13.45;;;;;;;4.48;100.00;93255.53;2095975;28;20904;-87
2021/11/15 02:54:07;;;;;;;26.05;13.40;;;;;;;4.50;100.00;93267.22;2111239;28;20108;-87
2021/11/15 02:55:09;;;;;;;20.95;12.32;;;;;;;4.68;100.00;93254.06;2106155;28;20028;-88
2021/11/15 02:56:10;;;;;;;20.70;13.90;;;;;;;4.58;100.00;93261.97;2104345;28;20023;-85
2021/11/15 02:57:19;;;;;;;20.30;13.25;;;;;;;4.61;100.00;93258.56;2103031;28;20043;-88
2021/11/15 02:58:20;;;;;;;21.98;12.98;;;;;;;4.71;100.00;93263.16;2108359;28;20032;-86
2021/11/15 02:59:21;;;;;;;21.73;13.75;;;;;;;4.70;100.00;93259.00;2091857;28;20029;-86
2021/11/15 03:00:26;;;;;;;20.48;13.82;;;;;;;4.68;100.00;93255.94;2099401;28;20104;-87
2021/11/15 03:01:27;;;;;;;19.95;12.30;;;;;;;4.50;100.00;93255.91;2110896;28;20020;-87
2021/11/15 03:02:29;;;;;;;20.58;12.68;;;;;;;4.63;100.00;93258.97;2106816;28;20024;-87
2021/11/15 03:03:30;;;;;;;24.88;14.48;;;;;;;4.51;100.00;93263.44;2100298;28;20062;-89
2021/11/15 03:04:31;;;;;;;20.33;13.30;;;;;;;4.62;100.00;93260.09;2106338;28;20024;-87
2021/11/15 03:05:35;;;;;;;21.77;13.75;;;;;;;4.53;100.00;93261.19;2108406;28;20472;-87
2021/11/15 03:06:36;;;;;;;24.88;14.50;;;;;;;4.47;100.00;93267.97;2095233;28;20024;-85
2021/11/15 03:07:37;;;;;;;20.90;13.52;;;;;;;4.37;100.00;93257.34;2105550;28;20036;-86
2021/11/15 03:08:39;;;;;;;21.25;13.75;;;;;;;4.54;100.00;93261.97;2119961;28;20039;-87
2021/11/15 03:09:40;;;;;;;23.02;13.82;;;;;;;4.54;100.00;93256.66;2105398;28;20107;-87
2021/11/15 03:10:44;;;;;;;21.40;13.88;;;;;;;4.43;100.00;93264.56;2103773;28;20020;-86
2021/11/15 03:11:45;;;;;;;20.95;13.45;;;;;;;4.47;100.00;93265.31;2089019;28;20052;-87
2021/11/15 03:12:46;;;;;;;22.67;13.52;;;;;;;4.40;100.00;93260.03;2095728;28;20120;-87
2021/11/15 03:13:48;;;;;;;20.65;13.18;;;;;;;4.45;100.00;93264.19;2096266;28;20032;-86
2021/11/15 03:14:49;;;;;;;22.17;13.23;;;;;;;4.49;100.00;93255.13;2104531;28;20024;-87
2021/11/15 03:15:53;;;;;;;20.48;13.40;;;;;;;4.56;100.00;93257.03;2100731;28;20030;-88
2021/11/15 03:16:54;;;;;;;19.33;12.50;;;;;;;4.57;100.00;93265.75;2103251;28;20481;-85
2021/11/15 03:18:01;;;;;;;18.67;13.13;;;;;;;4.58;100.00;93256.69;2089825;28;20071;-84
2021/11/15 03:19:02;;;;;;;24.27;13.80;;;;;;;4.61;100.00;93258.56;2097559;28;20032;-86
2021/11/15 03:20:03;;;;;;;22.25;14.00;;;;;;;4.54;100.00;93260.06;2098446;28;20102;-87
2021/11/15 03:21:18;;;;;;;20.00;13.10;;;;;;;4.65;100.00;93261.97;2093072;28;20025;-87
2021/11/15 03:22:19;;;;;;;20.00;12.50;;;;;;;4.54;100.00;93256.66;2093989;28;20082;-87
2021/11/15 03:23:22;;;;;;;21.90;12.90;;;;;;;4.45;100.00;93264.19;2099886;28;20027;-89
2021/11/15 03:24:23;;;;;;;18.85;13.07;;;;;;;4.62;100.00;93263.50;2093322;28;20052;-87
2021/11/15 03:25:26;;;;;;;21.15;13.27;;;;;;;4.63;100.00;93259.72;2092830;28;20070;-89
2021/11/15 03:26:27;;;;;;;20.90;13.52;;;;;;;4.44;100.00;93263.44;2098818;28;20032;-88
2021/11/15 03:27:33;;;;;;;21.40;12.55;;;;;;;4.43;100.00;93264.56;2090208;28;20025;-89
2021/11/15 03:28:39;;;;;;;18.25;12.48;;;;;;;4.52;100.00;93267.63;2096550;28;20576;-85
2021/11/15 03:29:40;;;;;;;23.33;14.00;;;;;;;4.41;100.00;93272.13;2107799;28;20058;-87
2021/11/15 03:30:41;;;;;;;21.15;13.50;;;;;;;4.42;100.00;93260.41;2106064;28;20028;-88
2021/11/15 03:31:43;;;;;;;23.08;13.15;;;;;;;4.46;100.00;93261.16;2090992;28;20428;-88
2021/11/15 03:32:46;;;;;;;20.45;13.27;;;;;;;4.43;100.00;93267.19;2098530;28;20391;-88
2021/11/15 03:33:49;;;;;;;22.58;13.40;;;;;;;4.63;100.00;93259.72;2099119;28;20028;-89
2021/11/15 03:34:51;;;;;;;22.83;12.70;;;;;;;4.59;100.00;93263.47;2098662;28;20020;-87
2021/11/15 03:35:52;;;;;;;20.33;13.43;;;;;;;4.52;100.00;93270.28;2097641;28;20024;-88
2021/11/15 03:36:53;;;;;;;19.38;12.93;;;;;;;4.47;100.00;93262.69;2083888;28;20644;-86
2021/11/15 03:37:55;;;;;;;20.98;13.77;;;;;;;4.49;100.00;93254.38;2089089;28;20032;-86
2021/11/15 03:38:59;;;;;;;23.05;13.35;;;;;;;4.44;100.00;93252.09;2100137;28;20032;-87
2021/11/15 03:40:00;;;;;;;20.38;13.52;;;;;;;4.43;100.00;93253.97;2104732;28;20111;-84
2021/11/15 03:41:03;;;;;;;21.20;13.55;;;;;;;4.41;100.00;93250.19;2100786;28;20038;-86
2021/11/15 03:42:04;;;;;;;23.23;13.50;;;;;;;4.28;100.00;93260.34;2104027;28;20024;-86
2021/11/15 03:43:06;;;;;;;22.48;13.82;;;;;;;4.34;100.00;93248.25;2087232;28;20025;-88
2021/11/15 03:44:09;;;;;;;23.40;13.82;;;;;;;4.19;100.00;93257.28;2096052;28;20055;-89
2021/11/15 03:45:11;;;;;;;20.63;12.93;;;;;;;4.20;100.00;93254.25;2102113;28;20020;-86
2021/11/15 03:46:15;;;;;;;21.80;12.63;;;;;;;4.26;100.00;93262.63;2101181;28;20046;-87
2021/11/15 03:47:15;;;;;;;20.98;12.73;;;;;;;4.26;100.00;93252.03;2097790;28;20412;-85
2021/11/15 03:48:17;;;;;;;21.33;13.68;;;;;;;4.29;100.00;93256.56;2097565;28;20066;-86
2021/11/15 03:49:18;;;;;;;21.55;13.13;;;;;;;4.29;100.00;93256.56;2098059;28;20082;-88
2021/11/15 03:50:19;;;;;;;22.02;13.27;;;;;;;4.22;100.00;93259.94;2110618;28;20016;-86
2021/11/15 03:51:20;;;;;;;23.65;13.40;;;;;;;4.23;100.00;93258.81;2102987;28;20030;-86
2021/11/15 03:52:21;;;;;;;20.92;13.60;;;;;;;4.32;100.00;93249.78;2090066;28;20044;-86
2021/11/15 03:53:29;;;;;;;22.67;13.13;;;;;;;4.27;100.00;93258.84;2097432;28;20020;-86
2021/11/15 03:54:30;;;;;;;21.05;13.57;;;;;;;4.23;100.00;93252.78;2093737;28;20112;-88
2021/11/15 03:55:31;;;;;;;19.15;12.50;;;;;;;4.19;100.00;93254.63;2100172;28;20111;-85
2021/11/15 03:56:32;;;;;;;20.77;13.80;;;;;;;4.13;100.00;93253.50;2096359;28;20025;-86
2021/11/15 03:57:33;;;;;;;18.17;12.35;;;;;;;4.21;100.00;93253.13;2083428;28;20025;-88
2021/11/15 03:58:34;;;;;;;19.73;13.02;;;;;;;4.20;100.00;93253.50;2096699;28;20404;-88
2021/11/15 03:59:35;;;;;;;22.02;13.27;;;;;;;4.22;100.00;93256.56;2108099;28;20469;-87
2021/11/15 04:00:39;;;;;;;21.85;12.95;;;;;;;4.28;100.00;93255.81;2096906;28;20062;-86
2021/11/15 04:01:42;;;;;;;19.25;12.07;;;;;;;4.24;100.00;93254.28;2091269;28;20021;-87
2021/11/15 04:02:49;;;;;;;21.13;12.85;;;;;;;4.24;100.00;93254.28;2097836;28;20047;-88
2021/11/15 04:03:51;;;;;;;20.85;14.15;;;;;;;4.10;100.00;93259.50;2083453;28;20025;-87
2021/11/15 04:04:56;;;;;;;19.38;12.77;;;;;;;4.07;100.00;93249.66;2089464;28;20064;-89
2021/11/15 04:06:02;;;;;;;22.38;12.52;;;;;;;4.17;100.00;93259.53;2092487;28;20113;-88
2021/11/15 04:07:03;;;;;;;22.45;12.68;;;;;;;4.15;100.00;93259.91;2096663;28;20021;-88
2021/11/15 04:08:06;;;;;;;20.10;12.43;;;;;;;4.16;100.00;93255.38;2092108;28;20029;-86
2021/11/15 04:09:10;;;;;;;19.45;12.13;;;;;;;4.15;100.00;93259.91;2103355;28;20060;-89
2021/11/15 04:10:20;;;;;;;21.20;12.77;;;;;;;4.14;100.00;93252.34;2088794;28;20020;-87
2021/11/15 04:11:23;;;;;;;18.88;12.32;;;;;;;4.16;100.00;93263.31;2091311;28;20029;-88
2021/11/15 04:12:25;;;;;;;20.63;12.18;;;;;;;4.21;100.00;93262.94;2092231;28;20079;-89
2021/11/15 04:13:39;;;;;;;20.00;12.40;;;;;;;4.22;100.00;93261.84;2092639;28;20445;-87
2021/11/15 04:14:40;;;;;;;19.40;12.57;;;;;;;4.19;100.00;93262.56;2102122;28;20029;-85
2021/11/15 04:15:42;;;;;;;18.42;12.60;;;;;;;4.25;100.00;93261.06;2103710;28;20104;-85
2021/11/15 04:16:44;;;;;;;20.08;12.40;;;;;;;4.12;100.00;93263.28;2109619;28;20023;-86
2021/11/15 04:17:46;;;;;;;19.05;12.13;;;;;;;4.38;100.00;93253.56;2094543;28;20043;-85
2021/11/15 04:18:54;;;;;;;21.35;12.63;;;;;;;4.28;100.00;93249.75;2090153;28;20559;-85
2021/11/15 04:19:55;;;;;;;17.83;12.10;;;;;;;4.23;100.00;93263.34;2106121;28;20020;-86
2021/11/15 04:20:57;;;;;;;18.92;12.05;;;;;;;4.40;100.00;93256.63;2107976;27;20070;-86
2021/11/15 04:21:58;;;;;;;19.38;12.23;;;;;;;4.33;100.00;93261.88;2104560;28;20107;-86
2021/11/15 04:23:00;;;;;;;16.50;11.77;;;;;;;4.20;100.00;93258.78;2091764;28;20032;-86
2021/11/15 04:24:01;;;;;;;19.05;11.30;;;;;;;4.22;100.00;93267.88;2098179;28;20102;-87
2021/11/15 04:25:08;;;;;;;19.63;12.70;;;;;;;4.16;100.00;93271.25;2098275;28;20058;-85
2021/11/15 04:26:09;;;;;;;21.05;11.75;;;;;;;4.11;100.00;93266.31;2112483;28;20429;-86
2021/11/15 04:27:10;;;;;;;20.33;13.05;;;;;;;4.13;100.00;93264.81;2101292;28;20036;-87
2021/11/15 04:28:12;;;;;;;20.70;11.57;;;;;;;4.11;100.00;93267.06;2102855;28;20016;-87
2021/11/15 04:29:13;;;;;;;18.88;11.95;;;;;;;4.00;100.00;93266.25;2109793;28;20027;-86
2021/11/15 04:30:16;;;;;;;23.13;12.55;;;;;;;4.00;100.00;93260.97;2095193;28;20388;-85
2021/11/15 04:31:17;;;;;;;19.10;12.25;;;;;;;4.00;100.00;93264.38;2084880;28;20040;-86
2021/11/15 04:32:19;;;;;;;19.00;11.43;;;;;;;3.98;100.00;93266.63;2083635;28;20025;-85
2021/11/15 04:33:23;;;;;;;18.13;11.45;;;;;;;4.07;100.00;93271.56;2096345;28;20729;-86
2021/11/15 04:34:24;;;;;;;18.80;11.88;;;;;;;4.16;100.00;93268.59;2099564;28;20389;-86
2021/11/15 04:35:25;;;;;;;19.05;11.25;;;;;;;4.16;100.00;93265.94;2095274;28;20035;-87
2021/11/15 04:36:26;;;;;;;17.08;11.25;;;;;;;4.14;100.00;93262.94;2092537;28;20032;-88
2021/11/15 04:37:27;;;;;;;19.02;11.95;;;;;;;4.12;100.00;93262.53;2103906;28;20024;-88
2021/11/15 04:38:28;;;;;;;17.08;11.57;;;;;;;4.06;100.00;93264.78;2100310;28;20080;-87
2021/11/15 04:39:29;;;;;;;17.73;10.82;;;;;;;4.05;100.00;93263.28;2087445;28;20135;-87
2021/11/15 04:40:31;;;;;;;19.33;11.20;;;;;;;3.98;100.00;93265.88;2091661;28;20025;-85
2021/11/15 04:41:32;;;;;;;19.15;11.45;;;;;;;3.95;100.00;93264.72;2099969;28;20027;-86
2021/11/15 04:42:34;;;;;;;17.20;11.45;;;;;;;3.93;100.00;93263.56;2086040;28;20027;-87
2021/11/15 04:43:35;;;;;;;19.50;11.75;;;;;;;4.11;100.00;93263.66;2096284;28;20784;-86
2021/11/15 04:44:36;;;;;;;17.95;12.13;;;;;;;4.08;100.00;93267.03;2106332;28;20028;-86
2021/11/15 04:45:37;;;;;;;19.25;12.07;;;;;;;4.19;100.00;93263.31;2090814;28;20586;-87
2021/11/15 04:46:38;;;;;;;17.10;12.05;;;;;;;4.13;100.00;93267.47;2098926;28;20129;-87